createdAt,value
2022-11-22T00:00:00.593Z,889.3
2022-11-22T00:01:00.303Z,889.3
2022-11-22T00:02:00.374Z,889.3
2022-11-22T00:03:00.332Z,889.2
2022-11-22T00:04:00.336Z,889.2
2022-11-22T00:05:00.299Z,889.1
2022-11-22T00:06:00.427Z,889.1
2022-11-22T00:07:00.325Z,889.1
2022-11-22T00:08:00.391Z,889.1
2022-11-22T00:09:00.494Z,889.1
2022-11-22T00:10:00.360Z,889.1
2022-11-22T00:11:00.413Z,889.1
2022-11-22T00:12:00.497Z,889.1
2022-11-22T00:13:00.307Z,889.1
2022-11-22T00:14:00.358Z,889.2
2022-11-22T00:15:00.317Z,889.2
2022-11-22T00:16:00.276Z,889.2
2022-11-22T00:17:00.312Z,889.2
2022-11-22T00:18:00.497Z,889.2
2022-11-22T00:19:00.349Z,889.1
2022-11-22T00:20:00.328Z,889.2
2022-11-22T00:21:00.306Z,889.2
2022-11-22T00:22:00.373Z,889.2
2022-11-22T00:23:00.438Z,889.2
2022-11-22T00:24:00.596Z,889.2
2022-11-22T00:25:00.306Z,889.2
2022-11-22T00:26:00.309Z,889.2
2022-11-22T00:27:00.279Z,889.2
2022-11-22T00:28:00.375Z,889.2
2022-11-22T00:29:00.318Z,889.2
2022-11-22T00:30:00.462Z,889.3
2022-11-22T00:31:00.318Z,889.3
2022-11-22T00:32:00.305Z,889.2
2022-11-22T00:33:00.301Z,889.2
2022-11-22T00:34:00.423Z,889.2
2022-11-22T00:35:00.304Z,889.2
2022-11-22T00:36:00.529Z,889.2
2022-11-22T00:37:00.292Z,889.2
2022-11-22T00:38:00.340Z,889.2
2022-11-22T00:39:00.428Z,889.2
2022-11-22T00:40:00.320Z,889.2
2022-11-22T00:41:00.311Z,889.1
2022-11-22T00:42:00.660Z,889.1
2022-11-22T00:43:00.340Z,889.1
2022-11-22T00:44:00.332Z,889.0
2022-11-22T00:45:00.308Z,889.0
2022-11-22T00:46:00.326Z,889.1
2022-11-22T00:47:00.308Z,889.1
2022-11-22T00:48:00.569Z,889.1
2022-11-22T00:49:00.351Z,889.0
2022-11-22T00:50:00.294Z,889.0
2022-11-22T00:51:00.373Z,889.0
2022-11-22T00:52:00.347Z,889.0
2022-11-22T00:53:00.320Z,889.0
2022-11-22T00:54:00.523Z,889.0
2022-11-22T00:55:00.323Z,889.0
2022-11-22T00:56:00.336Z,889.0
2022-11-22T00:57:00.355Z,889.0
2022-11-22T00:58:00.276Z,889.0
2022-11-22T00:59:00.316Z,889.0
2022-11-22T01:00:00.564Z,889.0
2022-11-22T01:01:00.447Z,889.0
2022-11-22T01:02:00.337Z,889.0
2022-11-22T01:03:00.308Z,889.0
2022-11-22T01:04:00.327Z,889.0
2022-11-22T01:05:00.348Z,889.0
2022-11-22T01:06:00.467Z,889.0
2022-11-22T01:07:00.298Z,889.1
2022-11-22T01:08:00.398Z,889.1
2022-11-22T01:09:00.382Z,889.1
2022-11-22T01:10:00.527Z,889.1
2022-11-22T01:11:00.344Z,889.0
2022-11-22T01:12:00.621Z,889.0
2022-11-22T01:13:00.412Z,889.0
2022-11-22T01:14:00.303Z,889.0
2022-11-22T01:15:00.354Z,889.0
2022-11-22T01:16:00.324Z,889.0
2022-11-22T01:17:00.315Z,889.0
2022-11-22T01:18:00.475Z,889.0
2022-11-22T01:19:00.358Z,889.0
2022-11-22T01:20:00.320Z,889.0
2022-11-22T01:21:00.375Z,888.9
2022-11-22T01:22:00.349Z,888.9
2022-11-22T01:23:00.481Z,888.9
2022-11-22T01:24:00.511Z,888.9
2022-11-22T01:25:00.456Z,888.9
2022-11-22T01:26:00.428Z,888.9
2022-11-22T01:27:00.415Z,888.9
2022-11-22T01:28:00.343Z,889.0
2022-11-22T01:29:00.361Z,889.0
2022-11-22T01:30:00.459Z,889.0
2022-11-22T01:31:00.443Z,889.0
2022-11-22T01:32:00.354Z,888.9
2022-11-22T01:33:00.347Z,888.8
2022-11-22T01:34:00.380Z,888.8
2022-11-22T01:35:00.338Z,888.8
2022-11-22T01:36:00.535Z,888.8
2022-11-22T01:37:00.435Z,888.7
2022-11-22T01:38:00.341Z,888.7
2022-11-22T01:39:00.323Z,888.7
2022-11-22T01:40:00.316Z,888.7
2022-11-22T01:41:00.427Z,888.8
2022-11-22T01:42:00.575Z,888.7
2022-11-22T01:43:00.351Z,888.7
2022-11-22T01:44:00.354Z,888.7
2022-11-22T01:45:00.321Z,888.7
2022-11-22T01:46:00.315Z,888.7
2022-11-22T01:47:00.305Z,888.7
2022-11-22T01:48:00.558Z,888.7
2022-11-22T01:49:00.324Z,888.7
2022-11-22T01:50:00.290Z,888.7
2022-11-22T01:51:00.279Z,888.7
2022-11-22T01:52:00.389Z,888.7
2022-11-22T01:53:00.361Z,888.7
2022-11-22T01:54:00.414Z,888.7
2022-11-22T01:55:00.376Z,888.8
2022-11-22T01:56:00.339Z,888.8
2022-11-22T01:57:00.309Z,888.8
2022-11-22T01:58:00.550Z,888.8
2022-11-22T01:59:00.348Z,888.8
2022-11-22T02:00:00.487Z,888.8
2022-11-22T02:01:00.365Z,888.8
2022-11-22T02:02:00.381Z,888.8
2022-11-22T02:03:00.296Z,888.8
2022-11-22T02:04:00.373Z,888.8
2022-11-22T02:05:00.355Z,888.9
2022-11-22T02:06:00.444Z,888.8
2022-11-22T02:07:00.294Z,888.9
2022-11-22T02:08:00.402Z,888.9
2022-11-22T02:09:00.357Z,888.9
2022-11-22T02:10:00.362Z,888.9
2022-11-22T02:11:00.378Z,888.9
2022-11-22T02:12:00.431Z,888.9
2022-11-22T02:13:00.388Z,888.9
2022-11-22T02:14:00.308Z,888.9
2022-11-22T02:15:00.277Z,888.9
2022-11-22T02:16:00.320Z,888.9
2022-11-22T02:17:00.311Z,888.8
2022-11-22T02:18:00.982Z,888.8
2022-11-22T02:19:00.310Z,888.9
2022-11-22T02:20:00.337Z,888.8
2022-11-22T02:21:00.338Z,888.8
2022-11-22T02:22:00.327Z,888.8
2022-11-22T02:23:00.334Z,888.8
2022-11-22T02:24:00.443Z,888.8
2022-11-22T02:25:00.307Z,888.7
2022-11-22T02:26:00.307Z,888.7
2022-11-22T02:27:00.293Z,888.7
2022-11-22T02:28:00.460Z,888.7
2022-11-22T02:29:00.328Z,888.7
2022-11-22T02:30:00.385Z,888.7
2022-11-22T02:31:00.300Z,888.8
2022-11-22T02:32:00.332Z,888.8
2022-11-22T02:33:00.307Z,888.8
2022-11-22T02:34:01.832Z,888.8
2022-11-22T02:35:00.395Z,888.9
2022-11-22T02:36:00.442Z,888.9
2022-11-22T02:37:00.340Z,888.9
2022-11-22T02:38:00.318Z,888.9
2022-11-22T02:39:00.388Z,888.9
2022-11-22T02:40:00.355Z,888.9
2022-11-22T02:41:00.357Z,888.9
2022-11-22T02:42:00.608Z,888.9
2022-11-22T02:43:00.362Z,888.9
2022-11-22T02:44:00.580Z,888.8
2022-11-22T02:45:00.329Z,888.9
2022-11-22T02:46:00.325Z,888.9
2022-11-22T02:47:00.319Z,888.9
2022-11-22T02:48:00.528Z,888.9
2022-11-22T02:49:00.318Z,888.9
2022-11-22T02:50:00.332Z,888.8
2022-11-22T02:51:00.337Z,888.8
2022-11-22T02:52:00.291Z,888.8
2022-11-22T02:53:00.278Z,888.8
2022-11-22T02:54:00.465Z,888.8
2022-11-22T02:55:00.296Z,888.8
2022-11-22T02:56:00.307Z,888.9
2022-11-22T02:57:00.351Z,888.9
2022-11-22T02:58:00.352Z,888.9
2022-11-22T02:59:00.417Z,888.8
2022-11-22T03:00:00.469Z,888.8
2022-11-22T03:01:00.385Z,888.8
2022-11-22T03:02:03.359Z,888.8
2022-11-22T03:03:00.349Z,888.8
2022-11-22T03:04:00.319Z,888.8
2022-11-22T03:05:00.330Z,888.8
2022-11-22T03:06:00.524Z,888.8
2022-11-22T03:07:00.319Z,888.7
2022-11-22T03:08:00.291Z,888.8
2022-11-22T03:09:00.346Z,888.8
2022-11-22T03:10:00.282Z,888.8
2022-11-22T03:11:00.306Z,888.9
2022-11-22T03:12:00.502Z,888.9
2022-11-22T03:13:00.381Z,888.9
2022-11-22T03:14:00.619Z,888.9
2022-11-22T03:15:00.301Z,888.9
2022-11-22T03:16:00.316Z,888.9
2022-11-22T03:17:00.319Z,889.0
2022-11-22T03:18:00.456Z,889.0
2022-11-22T03:19:00.320Z,888.9
2022-11-22T03:20:00.322Z,889.0
2022-11-22T03:21:00.339Z,889.0
2022-11-22T03:22:00.418Z,889.0
2022-11-22T03:23:00.349Z,889.0
2022-11-22T03:24:00.485Z,888.9
2022-11-22T03:25:00.352Z,888.9
2022-11-22T03:26:00.320Z,888.9
2022-11-22T03:27:00.387Z,888.9
2022-11-22T03:28:00.321Z,889.0
2022-11-22T03:29:00.424Z,889.0
2022-11-22T03:30:00.375Z,889.0
2022-11-22T03:31:00.325Z,889.0
2022-11-22T03:32:00.299Z,889.0
2022-11-22T03:33:00.355Z,889.1
2022-11-22T03:34:00.303Z,889.0
2022-11-22T03:35:00.304Z,889.0
2022-11-22T03:36:00.428Z,889.0
2022-11-22T03:37:00.304Z,889.0
2022-11-22T03:38:00.317Z,889.0
2022-11-22T03:39:00.296Z,889.1
2022-11-22T03:40:00.316Z,889.1
2022-11-22T03:41:00.332Z,889.1
2022-11-22T03:42:00.452Z,889.2
2022-11-22T03:43:00.355Z,889.2
2022-11-22T03:44:00.464Z,889.2
2022-11-22T03:45:00.388Z,889.1
2022-11-22T03:46:00.338Z,889.1
2022-11-22T03:47:00.290Z,889.1
2022-11-22T03:48:00.376Z,889.1
2022-11-22T03:49:00.290Z,889.1
2022-11-22T03:50:00.324Z,889.1
2022-11-22T03:51:00.311Z,889.1
2022-11-22T03:52:00.281Z,889.1
2022-11-22T03:53:00.344Z,889.2
2022-11-22T03:54:00.564Z,889.2
2022-11-22T03:55:00.364Z,889.2
2022-11-22T03:56:00.316Z,889.2
2022-11-22T03:57:00.314Z,889.2
2022-11-22T03:58:00.349Z,889.2
2022-11-22T03:59:00.335Z,889.2
2022-11-22T04:00:00.447Z,889.2
2022-11-22T04:01:00.628Z,889.2
2022-11-22T04:02:00.479Z,889.2
2022-11-22T04:03:00.391Z,889.2
2022-11-22T04:04:00.364Z,889.2
2022-11-22T04:05:00.302Z,889.3
2022-11-22T04:06:00.449Z,889.2
2022-11-22T04:07:00.310Z,889.3
2022-11-22T04:08:00.339Z,889.2
2022-11-22T04:09:00.392Z,889.2
2022-11-22T04:10:00.328Z,889.2
2022-11-22T04:11:00.281Z,889.2
2022-11-22T04:12:00.522Z,889.2
2022-11-22T04:13:00.355Z,889.2
2022-11-22T04:14:00.313Z,889.2
2022-11-22T04:15:00.355Z,889.3
2022-11-22T04:16:00.436Z,889.2
2022-11-22T04:17:00.316Z,889.3
2022-11-22T04:18:00.533Z,889.2
2022-11-22T04:19:00.334Z,889.3
2022-11-22T04:20:00.332Z,889.3
2022-11-22T04:21:00.423Z,889.3
2022-11-22T04:22:00.321Z,889.3
2022-11-22T04:23:00.406Z,889.3
2022-11-22T04:24:00.565Z,889.3
2022-11-22T04:25:00.277Z,889.3
2022-11-22T04:26:00.335Z,889.4
2022-11-22T04:27:00.280Z,889.3
2022-11-22T04:28:00.331Z,889.3
2022-11-22T04:29:09.842Z,889.3
2022-11-22T04:30:00.655Z,889.2
2022-11-22T04:31:00.357Z,889.3
2022-11-22T04:32:00.380Z,889.3
2022-11-22T04:33:00.292Z,889.3
2022-11-22T04:34:00.320Z,889.3
2022-11-22T04:35:00.355Z,889.3
2022-11-22T04:36:00.480Z,889.3
2022-11-22T04:37:00.323Z,889.3
2022-11-22T04:38:00.331Z,889.4
2022-11-22T04:39:00.287Z,889.3
2022-11-22T04:40:00.331Z,889.4
2022-11-22T04:41:00.340Z,889.3
2022-11-22T04:42:00.478Z,889.4
2022-11-22T04:43:00.341Z,889.4
2022-11-22T04:44:00.325Z,889.4
2022-11-22T04:45:00.279Z,889.4
2022-11-22T04:46:00.315Z,889.4
2022-11-22T04:47:00.455Z,889.3
2022-11-22T04:48:00.403Z,889.3
2022-11-22T04:49:00.309Z,889.3
2022-11-22T04:50:00.309Z,889.3
2022-11-22T04:51:00.310Z,889.3
2022-11-22T04:52:00.303Z,889.3
2022-11-22T04:53:00.294Z,889.3
2022-11-22T04:54:00.425Z,889.3
2022-11-22T04:55:00.336Z,889.4
2022-11-22T04:56:00.339Z,889.3
2022-11-22T04:57:00.311Z,889.3
2022-11-22T04:58:00.634Z,889.4
2022-11-22T04:59:00.369Z,889.3
2022-11-22T05:00:00.541Z,889.4
2022-11-22T05:01:00.392Z,889.4
2022-11-22T05:02:00.510Z,889.4
2022-11-22T05:03:00.275Z,889.4
2022-11-22T05:04:00.343Z,889.3
2022-11-22T05:05:00.370Z,889.3
2022-11-22T05:06:00.449Z,889.3
2022-11-22T05:07:00.295Z,889.3
2022-11-22T05:08:00.353Z,889.3
2022-11-22T05:09:00.290Z,889.3
2022-11-22T05:10:00.307Z,889.3
2022-11-22T05:11:00.316Z,889.3
2022-11-22T05:12:00.438Z,889.3
2022-11-22T05:13:00.302Z,889.4
2022-11-22T05:14:00.307Z,889.4
2022-11-22T05:15:00.275Z,889.4
2022-11-22T05:16:00.290Z,889.4
2022-11-22T05:17:00.489Z,889.4
2022-11-22T05:18:00.413Z,889.4
2022-11-22T05:19:00.308Z,889.5
2022-11-22T05:20:00.307Z,889.5
2022-11-22T05:21:00.309Z,889.5
2022-11-22T05:22:00.341Z,889.5
2022-11-22T05:23:00.394Z,889.5
2022-11-22T05:24:00.518Z,889.4
2022-11-22T05:25:00.319Z,889.4
2022-11-22T05:26:00.319Z,889.4
2022-11-22T05:27:00.305Z,889.5
2022-11-22T05:28:00.297Z,889.4
2022-11-22T05:29:00.322Z,889.5
2022-11-22T05:30:00.515Z,889.5
2022-11-22T05:31:00.328Z,889.4
2022-11-22T05:32:00.444Z,889.5
2022-11-22T05:33:00.304Z,889.5
2022-11-22T05:34:00.331Z,889.4
2022-11-22T05:35:00.399Z,889.5
2022-11-22T05:36:00.586Z,889.5
2022-11-22T05:37:00.295Z,889.5
2022-11-22T05:38:00.353Z,889.5
2022-11-22T05:39:00.334Z,889.5
2022-11-22T05:40:00.307Z,889.5
2022-11-22T05:41:00.309Z,889.5
2022-11-22T05:42:00.464Z,889.6
2022-11-22T05:43:00.367Z,889.5
2022-11-22T05:44:00.323Z,889.6
2022-11-22T05:45:00.310Z,889.6
2022-11-22T05:46:00.324Z,889.6
2022-11-22T05:47:00.466Z,889.6
2022-11-22T05:48:00.406Z,889.5
2022-11-22T05:49:00.324Z,889.4
2022-11-22T05:50:00.327Z,889.4
2022-11-22T05:51:00.305Z,889.4
2022-11-22T05:52:00.311Z,889.3
2022-11-22T05:53:00.286Z,889.4
2022-11-22T05:54:00.483Z,889.3
2022-11-22T05:55:00.392Z,889.2
2022-11-22T05:56:00.285Z,889.2
2022-11-22T05:57:00.372Z,889.2
2022-11-22T05:58:00.403Z,889.2
2022-11-22T05:59:00.384Z,889.2
2022-11-22T06:00:00.490Z,889.3
2022-11-22T06:01:00.306Z,889.3
2022-11-22T06:02:00.656Z,889.2
2022-11-22T06:03:00.380Z,889.3
2022-11-22T06:04:00.330Z,889.2
2022-11-22T06:05:00.352Z,889.3
2022-11-22T06:06:00.480Z,889.3
2022-11-22T06:07:03.250Z,889.3
2022-11-22T06:08:00.466Z,889.3
2022-11-22T06:09:00.339Z,889.3
2022-11-22T06:10:00.309Z,889.3
2022-11-22T06:11:00.339Z,889.3
2022-11-22T06:12:00.451Z,889.4
2022-11-22T06:13:00.428Z,889.3
2022-11-22T06:14:00.406Z,889.3
2022-11-22T06:15:00.283Z,889.3
2022-11-22T06:16:00.372Z,889.3
2022-11-22T06:17:00.483Z,889.3
2022-11-22T06:18:00.400Z,889.2
2022-11-22T06:19:00.345Z,889.2
2022-11-22T06:20:05.755Z,889.2
2022-11-22T06:21:00.328Z,889.2
2022-11-22T06:22:00.325Z,889.3
2022-11-22T06:23:00.369Z,889.3
2022-11-22T06:24:00.553Z,889.3
2022-11-22T06:25:00.304Z,889.3
2022-11-22T06:26:00.276Z,889.3
2022-11-22T06:27:00.315Z,889.3
2022-11-22T06:28:00.380Z,889.3
2022-11-22T06:29:00.329Z,889.3
2022-11-22T06:30:00.530Z,889.2
2022-11-22T06:31:00.280Z,889.2
2022-11-22T06:32:03.795Z,889.2
2022-11-22T06:33:00.324Z,889.2
2022-11-22T06:34:00.325Z,889.2
2022-11-22T06:35:00.304Z,889.2
2022-11-22T06:36:00.493Z,889.2
2022-11-22T06:37:00.298Z,889.2
2022-11-22T06:38:00.844Z,889.3
2022-11-22T06:39:00.299Z,889.3
2022-11-22T06:40:00.350Z,889.3
2022-11-22T06:41:00.346Z,889.3
2022-11-22T06:42:00.462Z,889.3
2022-11-22T06:43:00.300Z,889.2
2022-11-22T06:44:00.328Z,889.2
2022-11-22T06:45:00.297Z,889.2
2022-11-22T06:46:00.347Z,889.2
2022-11-22T06:47:00.452Z,889.2
2022-11-22T06:48:00.467Z,889.2
2022-11-22T06:49:00.296Z,889.2
2022-11-22T06:50:00.307Z,889.2
2022-11-22T06:51:00.345Z,889.2
2022-11-22T06:52:00.352Z,889.2
2022-11-22T06:53:00.294Z,889.2
2022-11-22T06:54:00.478Z,889.1
2022-11-22T06:55:00.292Z,889.1
2022-11-22T06:56:01.576Z,889.1
2022-11-22T06:57:00.319Z,889.1
2022-11-22T06:58:00.870Z,889.1
2022-11-22T06:59:00.385Z,889.0
2022-11-22T07:00:00.451Z,889.0
2022-11-22T07:01:00.377Z,889.0
2022-11-22T07:02:06.080Z,889.0
2022-11-22T07:03:00.310Z,889.1
2022-11-22T07:04:00.331Z,889.1
2022-11-22T07:05:24.502Z,889.1
2022-11-22T07:06:00.433Z,889.0
2022-11-22T07:07:00.298Z,889.1
2022-11-22T07:08:06.677Z,889.0
2022-11-22T07:09:00.327Z,888.9
2022-11-22T07:10:00.381Z,888.9
2022-11-22T07:11:00.380Z,888.9
2022-11-22T07:12:00.516Z,888.9
2022-11-22T07:13:00.326Z,888.9
2022-11-22T07:14:06.596Z,888.9
2022-11-22T07:15:00.336Z,888.9
2022-11-22T07:16:00.314Z,888.9
2022-11-22T07:17:00.406Z,888.9
2022-11-22T07:18:00.549Z,888.9
2022-11-22T07:19:00.469Z,888.9
2022-11-22T07:20:00.419Z,888.9
2022-11-22T07:21:00.367Z,888.9
2022-11-22T07:22:00.342Z,888.9
2022-11-22T07:23:00.353Z,888.9
2022-11-22T07:24:00.577Z,888.9
2022-11-22T07:25:00.294Z,888.9
2022-11-22T07:26:00.297Z,888.8
2022-11-22T07:27:00.406Z,888.8
2022-11-22T07:28:00.296Z,888.7
2022-11-22T07:29:00.314Z,888.7
2022-11-22T07:30:00.551Z,888.7
2022-11-22T07:31:00.324Z,888.7
2022-11-22T07:32:00.579Z,888.8
2022-11-22T07:33:00.624Z,888.8
2022-11-22T07:34:00.305Z,888.8
2022-11-22T07:35:00.315Z,888.8
2022-11-22T07:36:00.532Z,888.8
2022-11-22T07:37:04.764Z,888.8
2022-11-22T07:38:00.291Z,888.7
2022-11-22T07:39:00.317Z,888.7
2022-11-22T07:40:00.339Z,888.6
2022-11-22T07:41:00.340Z,888.6
2022-11-22T07:42:00.453Z,888.6
2022-11-22T07:43:00.289Z,888.7
2022-11-22T07:44:00.326Z,888.6
2022-11-22T07:45:00.327Z,888.6
2022-11-22T07:46:00.391Z,888.6
2022-11-22T07:47:00.394Z,888.5
2022-11-22T07:48:00.541Z,888.5
2022-11-22T07:49:00.339Z,888.5
2022-11-22T07:50:00.288Z,888.5
2022-11-22T07:51:00.294Z,888.6
2022-11-22T07:52:00.338Z,888.6
2022-11-22T07:53:00.314Z,888.5
2022-11-22T07:54:00.542Z,888.5
2022-11-22T07:55:00.284Z,888.5
2022-11-22T07:56:00.313Z,888.5
2022-11-22T07:57:00.312Z,888.5
2022-11-22T07:58:00.391Z,888.5
2022-11-22T07:59:00.357Z,888.5
2022-11-22T08:00:00.580Z,888.5
2022-11-22T08:01:00.362Z,888.5
2022-11-22T08:02:00.427Z,888.5
2022-11-22T08:03:00.615Z,888.5
2022-11-22T08:04:00.568Z,888.4
2022-11-22T08:05:00.373Z,888.4
2022-11-22T08:06:00.596Z,888.4
2022-11-22T08:07:00.305Z,888.4
2022-11-22T08:08:00.286Z,888.4
2022-11-22T08:09:02.049Z,888.4
2022-11-22T08:10:00.292Z,888.4
2022-11-22T08:11:00.518Z,888.4
2022-11-22T08:12:00.847Z,888.4
2022-11-22T08:13:00.726Z,888.5
2022-11-22T08:14:00.754Z,888.5
2022-11-22T08:15:00.438Z,888.5
2022-11-22T08:16:05.117Z,888.5
2022-11-22T08:17:00.666Z,888.4
2022-11-22T08:18:00.757Z,888.4
2022-11-22T08:19:00.697Z,888.3
2022-11-22T08:20:00.316Z,888.3
2022-11-22T08:21:00.433Z,888.2
2022-11-22T08:22:00.436Z,888.2
2022-11-22T08:23:00.445Z,888.1
2022-11-22T08:24:00.753Z,888.1
2022-11-22T08:25:00.463Z,888.1
2022-11-22T08:26:00.429Z,888.1
2022-11-22T08:27:00.539Z,888.1
2022-11-22T08:28:00.400Z,888.0
2022-11-22T08:29:00.497Z,888.0
2022-11-22T08:30:00.697Z,888.0
2022-11-22T08:31:00.491Z,888.0
2022-11-22T08:32:00.370Z,887.9
2022-11-22T08:33:00.572Z,887.9
2022-11-22T08:34:00.488Z,887.9
2022-11-22T08:35:00.780Z,887.9
2022-11-22T08:36:00.677Z,888.0
2022-11-22T08:37:00.317Z,888.0
2022-11-22T08:38:00.337Z,887.9
2022-11-22T08:39:00.501Z,887.9
2022-11-22T08:40:00.345Z,887.9
2022-11-22T08:41:00.354Z,887.9
2022-11-22T08:42:00.532Z,887.9
2022-11-22T08:43:00.366Z,888.0
2022-11-22T08:44:00.770Z,887.9
2022-11-22T08:45:00.485Z,888.0
2022-11-22T08:46:00.350Z,888.0
2022-11-22T08:47:00.399Z,887.9
2022-11-22T08:48:00.549Z,887.9
2022-11-22T08:49:00.367Z,887.9
2022-11-22T08:50:00.733Z,887.9
2022-11-22T08:51:00.397Z,887.9
2022-11-22T08:52:00.393Z,887.8
2022-11-22T08:53:00.324Z,887.8
2022-11-22T08:54:00.625Z,887.8
2022-11-22T08:55:00.604Z,887.7
2022-11-22T08:56:00.631Z,887.7
2022-11-22T08:57:00.691Z,887.7
2022-11-22T08:58:00.483Z,887.7
2022-11-22T08:59:00.421Z,887.6
2022-11-22T09:00:00.780Z,887.6
2022-11-22T09:01:00.398Z,887.6
2022-11-22T09:02:00.531Z,887.7
2022-11-22T09:03:00.330Z,887.7
2022-11-22T09:04:00.345Z,887.6
2022-11-22T09:05:00.474Z,887.7
2022-11-22T09:08:24.926Z,887.6
2022-11-22T09:09:22.014Z,887.6
2022-11-22T09:10:00.304Z,887.6
2022-11-22T09:11:00.310Z,887.6
2022-11-22T09:12:00.451Z,887.6
2022-11-22T09:13:00.402Z,887.5
2022-11-22T09:14:00.474Z,887.5
2022-11-22T09:15:00.399Z,887.4
2022-11-22T09:16:00.294Z,887.5
2022-11-22T09:17:00.284Z,887.5
2022-11-22T09:18:00.486Z,887.4
2022-11-22T09:19:00.408Z,887.4
2022-11-22T09:20:00.533Z,887.4
2022-11-22T09:21:00.315Z,887.4
2022-11-22T09:22:00.387Z,887.4
2022-11-22T09:23:00.363Z,887.4
2022-11-22T09:24:00.589Z,887.4
2022-11-22T09:25:00.327Z,887.4
2022-11-22T09:26:00.299Z,887.4
2022-11-22T09:27:00.310Z,887.4
2022-11-22T09:28:00.342Z,887.4
2022-11-22T09:29:00.327Z,887.4
2022-11-22T09:30:00.530Z,887.4
2022-11-22T09:31:00.375Z,887.4
2022-11-22T09:32:00.362Z,887.4
2022-11-22T09:33:00.327Z,887.4
2022-11-22T09:34:00.344Z,887.4
2022-11-22T09:35:00.458Z,887.3
2022-11-22T09:36:00.620Z,887.4
2022-11-22T09:37:00.326Z,887.4
2022-11-22T09:38:00.383Z,887.4
2022-11-22T09:39:00.324Z,887.4
2022-11-22T09:40:00.295Z,887.4
2022-11-22T09:41:00.296Z,887.4
2022-11-22T09:42:00.427Z,887.4
2022-11-22T09:43:00.309Z,887.3
2022-11-22T09:44:00.342Z,887.3
2022-11-22T09:45:00.313Z,887.2
2022-11-22T09:46:00.297Z,887.3
2022-11-22T09:47:00.518Z,887.3
2022-11-22T09:48:04.154Z,887.3
2022-11-22T09:49:00.389Z,887.3
2022-11-22T09:50:00.367Z,887.3
2022-11-22T09:51:00.463Z,887.2
2022-11-22T09:52:00.574Z,887.2
2022-11-22T09:53:00.446Z,887.2
2022-11-22T09:54:00.582Z,887.3
2022-11-22T09:55:00.482Z,887.3
2022-11-22T09:56:00.300Z,887.3
2022-11-22T09:57:00.294Z,887.3
2022-11-22T09:58:00.342Z,887.3
2022-11-22T09:59:00.320Z,887.3
2022-11-22T10:00:00.576Z,887.2
2022-11-22T10:01:00.350Z,887.2
2022-11-22T10:02:11.568Z,887.2
2022-11-22T10:03:00.955Z,887.1
2022-11-22T10:04:00.324Z,887.2
2022-11-22T10:05:00.328Z,887.2
2022-11-22T10:06:00.466Z,887.2
2022-11-22T10:07:00.479Z,887.1
2022-11-22T10:08:00.372Z,887.1
2022-11-22T10:09:00.324Z,887.1
2022-11-22T10:10:00.325Z,887.1
2022-11-22T10:11:00.303Z,887.1
2022-11-22T10:12:00.446Z,887.0
2022-11-22T10:13:00.314Z,887.0
2022-11-22T10:14:00.327Z,887.0
2022-11-22T10:15:00.337Z,887.0
2022-11-22T10:16:00.309Z,887.0
2022-11-22T10:17:00.321Z,887.0
2022-11-22T10:18:00.439Z,887.1
2022-11-22T10:19:00.307Z,887.1
2022-11-22T10:20:00.331Z,887.1
2022-11-22T10:21:00.358Z,887.1
2022-11-22T10:22:00.407Z,887.1
2022-11-22T10:23:00.440Z,887.0
2022-11-22T10:24:00.486Z,887.0
2022-11-22T10:25:00.327Z,887.0
2022-11-22T10:26:00.304Z,887.0
2022-11-22T10:27:00.364Z,887.0
2022-11-22T10:28:00.872Z,887.0
2022-11-22T10:29:00.301Z,887.0
2022-11-22T10:30:00.510Z,886.9
2022-11-22T10:31:00.299Z,887.0
2022-11-22T10:32:00.356Z,887.0
2022-11-22T10:33:00.330Z,886.9
2022-11-22T10:34:00.298Z,886.9
2022-11-22T10:35:00.314Z,886.9
2022-11-22T10:36:00.501Z,886.9
2022-11-22T10:37:00.339Z,886.9
2022-11-22T10:38:00.297Z,886.9
2022-11-22T10:39:00.484Z,886.9
2022-11-22T10:40:00.318Z,886.9
2022-11-22T10:41:00.341Z,886.9
2022-11-22T10:42:00.426Z,886.9
2022-11-22T10:43:00.339Z,887.0
2022-11-22T10:44:00.309Z,886.9
2022-11-22T10:45:00.345Z,887.0
2022-11-22T10:46:00.323Z,887.0
2022-11-22T10:47:00.329Z,887.0
2022-11-22T10:48:00.478Z,887.0
2022-11-22T10:49:00.310Z,887.0
2022-11-22T10:50:00.363Z,887.0
2022-11-22T10:51:00.337Z,887.0
2022-11-22T10:52:00.332Z,886.9
2022-11-22T10:53:00.320Z,887.0
2022-11-22T10:54:03.506Z,887.0
2022-11-22T10:55:00.399Z,887.0
2022-11-22T10:56:00.342Z,887.0
2022-11-22T10:57:00.325Z,887.0
2022-11-22T10:58:00.338Z,887.0
2022-11-22T10:59:00.375Z,887.0
2022-11-22T11:00:00.529Z,887.0
2022-11-22T11:01:00.403Z,887.0
2022-11-22T11:02:00.351Z,886.9
2022-11-22T11:03:00.281Z,886.9
2022-11-22T11:04:00.315Z,887.0
2022-11-22T11:05:00.310Z,887.0
2022-11-22T11:06:22.667Z,887.1
2022-11-22T11:07:12.746Z,887.1
2022-11-22T11:08:21.965Z,887.1
2022-11-22T11:09:55.177Z,887.1
2022-11-22T11:10:11.437Z,887.2
2022-11-22T11:11:00.343Z,887.1
2022-11-22T11:12:00.443Z,887.1
2022-11-22T11:13:00.329Z,887.0
2022-11-22T11:14:00.302Z,887.0
2022-11-22T11:15:00.392Z,887.0
2022-11-22T11:16:00.367Z,887.0
2022-11-22T11:17:00.331Z,887.0
2022-11-22T11:18:00.563Z,887.1
2022-11-22T11:19:00.330Z,887.1
2022-11-22T11:20:00.312Z,887.1
2022-11-22T11:21:00.318Z,887.1
2022-11-22T11:22:00.315Z,887.0
2022-11-22T11:23:14.897Z,887.0
2022-11-22T11:24:00.557Z,887.0
2022-11-22T11:25:00.359Z,887.0
2022-11-22T11:26:00.910Z,887.0
2022-11-22T11:27:00.627Z,887.0
2022-11-22T11:28:00.320Z,886.9
2022-11-22T11:29:00.345Z,886.9
2022-11-22T11:30:00.557Z,886.9
2022-11-22T11:31:00.431Z,887.0
2022-11-22T11:32:00.387Z,887.0
2022-11-22T11:33:00.355Z,887.0
2022-11-22T11:34:00.399Z,887.0
2022-11-22T11:35:00.325Z,887.0
2022-11-22T11:36:00.525Z,887.0
2022-11-22T11:37:00.401Z,887.0
2022-11-22T11:38:00.333Z,886.9
2022-11-22T11:39:00.457Z,886.9
2022-11-22T11:40:00.366Z,886.9
2022-11-22T11:41:00.304Z,886.8
2022-11-22T11:42:00.448Z,886.9
2022-11-22T11:43:00.311Z,886.9
2022-11-22T11:44:00.351Z,887.0
2022-11-22T11:45:00.323Z,887.0
2022-11-22T11:46:00.294Z,887.0
2022-11-22T11:47:00.341Z,887.0
2022-11-22T11:48:00.533Z,887.0
2022-11-22T11:49:00.351Z,887.0
2022-11-22T11:50:00.334Z,887.0
2022-11-22T11:51:00.301Z,887.0
2022-11-22T11:52:00.308Z,887.0
2022-11-22T11:53:00.377Z,887.0
2022-11-22T11:54:00.524Z,887.0
2022-11-22T11:55:00.346Z,887.0
2022-11-22T11:56:00.320Z,887.0
2022-11-22T11:57:00.329Z,886.9
2022-11-22T11:58:00.310Z,887.0
2022-11-22T11:59:00.353Z,887.0
2022-11-22T12:00:00.444Z,887.0
2022-11-22T12:01:00.329Z,887.0
2022-11-22T12:02:00.347Z,887.0
2022-11-22T12:03:00.287Z,887.0
2022-11-22T12:04:00.308Z,887.0
2022-11-22T12:05:00.380Z,887.0
2022-11-22T12:06:00.541Z,886.9
2022-11-22T12:07:03.284Z,886.9
2022-11-22T12:08:00.475Z,886.9
2022-11-22T12:09:00.362Z,887.0
2022-11-22T12:10:00.472Z,887.0
2022-11-22T12:11:00.355Z,887.0
2022-11-22T12:12:00.460Z,887.1
2022-11-22T12:13:04.452Z,887.1
2022-11-22T12:14:20.484Z,887.1
2022-11-22T12:15:12.103Z,887.1
2022-11-22T12:16:00.351Z,887.1
2022-11-22T12:17:00.390Z,887.1
2022-11-22T12:18:00.468Z,887.1
2022-11-22T12:19:00.294Z,887.1
2022-11-22T12:20:00.317Z,887.0
2022-11-22T12:21:00.310Z,887.0
2022-11-22T12:22:00.357Z,887.0
2022-11-22T12:23:00.316Z,887.1
2022-11-22T12:24:19.832Z,887.0
2022-11-22T12:26:00.365Z,887.0
2022-11-22T12:27:00.298Z,887.0
2022-11-22T12:28:00.298Z,887.0
2022-11-22T12:29:00.315Z,887.0
2022-11-22T12:30:00.558Z,887.0
2022-11-22T12:31:00.554Z,887.0
2022-11-22T12:32:00.512Z,887.0
2022-11-22T12:33:00.345Z,887.0
2022-11-22T12:34:00.317Z,887.0
2022-11-22T12:35:00.355Z,887.0
2022-11-22T12:36:00.446Z,887.0
2022-11-22T12:37:00.356Z,887.0
2022-11-22T12:38:00.332Z,887.1
2022-11-22T12:39:00.314Z,887.1
2022-11-22T12:40:00.327Z,887.1
2022-11-22T12:41:00.448Z,887.1
2022-11-22T12:42:00.460Z,887.1
2022-11-22T12:43:00.346Z,887.1
2022-11-22T12:44:00.333Z,887.1
2022-11-22T12:45:00.329Z,887.1
2022-11-22T12:46:00.390Z,887.1
2022-11-22T12:47:00.355Z,887.1
2022-11-22T12:48:00.446Z,887.1
2022-11-22T12:48:22.509Z,887.0
2022-11-22T12:49:00.285Z,887.1
2022-11-22T12:50:00.338Z,887.2
2022-11-22T12:51:00.398Z,887.2
2022-11-22T12:52:00.339Z,887.2
2022-11-22T12:53:00.329Z,887.2
2022-11-22T12:54:00.474Z,887.2